Time;durP1;ratioP1;P1;durP2;ratioP2;P2;SDS_P1;SDS_P2;PMS_P1;PMS_P2;Temp;Humidity;BMP_temperature;BMP_pressure;BME280_temperature;BME280_humidity;BME280_pressure;Samples;Min_cycle;Max_cycle;Signal;HPM_P1;HPM_P2
2021/11/09 00:00:37;;;;;;;17.80;7.50;;;;;;;3.90;80.17;100533.31;4987464;28;20473;-69
2021/11/09 00:03:07;;;;;;;19.42;6.57;;;;;;;3.93;80.71;100535.88;4988304;28;20064;-69
2021/11/09 00:05:33;;;;;;;19.77;7.45;;;;;;;3.93;80.39;100538.47;4985973;28;20798;-69
2021/11/09 00:08:05;;;;;;;12.40;5.00;;;;;;;3.94;80.36;100544.56;4988016;28;20125;-69
2021/11/09 00:10:31;;;;;;;15.80;6.78;;;;;;;3.93;80.20;100535.00;4987449;28;20124;-70
2021/11/09 00:13:00;;;;;;;19.98;7.53;;;;;;;3.93;80.22;100542.84;4987559;28;20034;-69
2021/11/09 00:15:27;;;;;;;18.15;7.20;;;;;;;3.91;80.59;100541.97;4988059;28;20100;-69
2021/11/09 00:17:56;;;;;;;13.05;5.50;;;;;;;3.86;80.97;100539.41;4987807;28;20058;-70
2021/11/09 00:20:23;;;;;;;14.50;6.95;;;;;;;3.86;80.84;100544.63;4986985;28;20050;-70
2021/11/09 00:22:49;;;;;;;16.08;5.38;;;;;;;3.82;80.74;100525.56;4987523;28;20030;-70
2021/11/09 00:25:16;;;;;;;13.52;5.85;;;;;;;3.81;80.83;100533.38;4987411;28;20041;-69
2021/11/09 00:27:42;;;;;;;16.75;6.53;;;;;;;3.77;81.05;100534.31;4987461;28;20049;-69
2021/11/09 00:30:09;;;;;;;18.80;6.65;;;;;;;3.75;80.83;100534.31;4985809;28;20034;-69
2021/11/09 00:32:35;;;;;;;17.00;5.68;;;;;;;3.71;80.77;100537.81;4988445;28;20042;-69
2021/11/09 00:35:00;;;;;;;14.88;5.45;;;;;;;3.69;81.05;100536.09;4988579;28;20042;-69
2021/11/09 00:37:26;;;;;;;19.98;5.88;;;;;;;3.68;81.01;100537.84;4988006;28;20653;-69
2021/11/09 00:39:52;;;;;;;15.02;5.60;;;;;;;3.67;80.83;100536.13;4987988;28;20038;-70
2021/11/09 00:42:18;;;;;;;19.23;7.00;;;;;;;3.66;80.80;100527.44;5004911;28;20533;-71
2021/11/09 00:44:44;;;;;;;17.35;6.22;;;;;;;3.65;80.62;100524.84;5006255;28;20029;-71
2021/11/09 00:47:10;;;;;;;16.15;5.47;;;;;;;3.64;80.62;100533.53;5007385;28;20497;-70
2021/11/09 00:49:35;;;;;;;14.13;6.45;;;;;;;3.60;80.84;100527.50;5007781;28;20044;-70
2021/11/09 00:52:02;;;;;;;21.20;6.55;;;;;;;3.57;81.12;100522.31;5006370;28;20033;-70
2021/11/09 00:54:28;;;;;;;16.70;5.45;;;;;;;3.56;81.15;100531.00;5007535;28;20030;-70
2021/11/09 00:56:54;;;;;;;22.58;6.45;;;;;;;3.56;80.74;100531.00;5009983;28;20486;-69
2021/11/09 00:59:20;;;;;;;21.90;6.35;;;;;;;3.57;80.82;100534.47;5011228;28;20096;-70
2021/11/09 01:01:45;;;;;;;17.50;6.45;;;;;;;3.53;80.72;100531.03;5011407;28;20042;-69
2021/11/09 01:04:10;;;;;;;21.17;7.43;;;;;;;3.53;80.88;100538.00;5010261;28;20049;-70
2021/11/09 01:06:36;;;;;;;15.73;6.07;;;;;;;3.50;81.02;100538.03;5011241;28;20160;-69
2021/11/09 01:09:04;;;;;;;13.52;6.07;;;;;;;3.49;81.25;100542.34;5010648;28;20038;-69
2021/11/09 01:11:29;;;;;;;23.40;7.40;;;;;;;3.48;81.17;100532.81;5009967;28;20524;-69
2021/11/09 01:13:56;;;;;;;14.00;6.68;;;;;;;3.47;81.02;100531.09;5010924;28;20046;-69
2021/11/09 01:16:22;;;;;;;20.05;5.95;;;;;;;3.45;81.10;100530.25;5009308;28;20045;-69
2021/11/09 01:18:51;;;;;;;15.57;7.18;;;;;;;3.44;81.18;100531.09;5010922;28;20042;-69
2021/11/09 01:21:18;;;;;;;22.38;6.45;;;;;;;3.42;81.02;100519.81;5010105;28;20064;-69
2021/11/09 01:23:47;;;;;;;17.80;5.55;;;;;;;3.41;81.20;100526.78;5009440;28;20037;-69
2021/11/09 01:26:13;;;;;;;16.23;6.05;;;;;;;3.43;81.31;100527.63;5010284;28;20481;-69
2021/11/09 01:28:39;;;;;;;16.17;6.90;;;;;;;3.44;80.75;100521.53;5010307;28;20037;-70
2021/11/09 01:31:06;;;;;;;23.77;6.90;;;;;;;3.47;80.70;100525.00;5004310;28;20125;-70
2021/11/09 01:33:32;;;;;;;24.92;7.43;;;;;;;3.43;80.76;100529.38;4991083;28;20038;-70
2021/11/09 01:35:58;;;;;;;14.75;6.10;;;;;;;3.40;80.94;100524.19;4990729;28;20144;-70
2021/11/09 01:38:24;;;;;;;19.73;7.18;;;;;;;3.41;80.67;100533.75;4990456;28;20125;-70
2021/11/09 01:40:50;;;;;;;21.30;6.50;;;;;;;3.42;80.64;100520.72;4989818;28;20039;-70
2021/11/09 01:43:16;;;;;;;17.90;6.18;;;;;;;3.41;79.94;100526.78;4990116;28;20038;-69
2021/11/09 01:45:44;;;;;;;19.48;5.13;;;;;;;3.40;79.93;100529.41;4990334;28;20042;-70
2021/11/09 01:48:10;;;;;;;19.42;5.50;;;;;;;3.38;80.16;100515.53;4998214;28;20457;-70
2021/11/09 01:50:42;;;;;;;20.08;6.38;;;;;;;3.37;79.85;100524.19;5009888;28;20133;-70
2021/11/09 01:53:09;;;;;;;11.05;5.97;;;;;;;3.34;79.97;100513.81;5009725;28;20064;-70
2021/11/09 01:55:37;;;;;;;17.83;5.13;;;;;;;3.33;80.06;100523.38;5007384;28;20125;-69
2021/11/09 01:58:03;;;;;;;13.75;5.93;;;;;;;3.31;79.66;100529.47;4976152;28;20049;-69
2021/11/09 02:00:36;;;;;;;15.15;6.75;;;;;;;3.25;80.08;100530.41;4985455;28;20121;-70
2021/11/09 02:03:03;;;;;;;18.33;6.57;;;;;;;3.25;79.83;100530.41;5010179;28;20121;-69
2021/11/09 02:05:29;;;;;;;15.57;7.65;;;;;;;3.22;80.19;100531.28;5010141;28;20045;-69
2021/11/09 02:07:57;;;;;;;21.25;6.25;;;;;;;3.22;80.40;100533.00;5008317;28;20481;-69
2021/11/09 02:10:27;;;;;;;16.73;6.60;;;;;;;3.16;80.26;100528.72;5004798;28;20057;-69
2021/11/09 02:12:53;;;;;;;23.40;7.05;;;;;;;3.13;80.85;100531.34;5008378;28;20042;-69
2021/11/09 02:15:19;;;;;;;14.88;5.85;;;;;;;3.14;81.01;100527.84;5010459;28;20038;-69
2021/11/09 02:17:46;;;;;;;14.98;5.70;;;;;;;3.15;80.58;100531.31;5009794;28;20393;-69
2021/11/09 02:20:16;;;;;;;16.67;5.28;;;;;;;3.14;80.49;100527.00;5008865;28;20026;-70
2021/11/09 02:22:42;;;;;;;14.50;5.90;;;;;;;3.13;80.32;100535.69;5009060;28;20060;-69
2021/11/09 02:25:11;;;;;;;11.98;5.00;;;;;;;3.09;80.77;100529.63;5009252;28;20116;-69
2021/11/09 02:27:37;;;;;;;17.65;5.03;;;;;;;3.09;80.75;100529.63;5007877;28;20124;-69
2021/11/09 02:30:06;;;;;;;12.02;5.57;;;;;;;3.06;80.79;100523.59;5008911;28;20072;-70
2021/11/09 02:32:31;;;;;;;15.43;5.47;;;;;;;3.04;81.09;100525.31;5009197;28;20037;-69
2021/11/09 02:34:57;;;;;;;20.08;5.65;;;;;;;3.01;81.02;100521.00;5009342;28;20422;-70
2021/11/09 02:37:22;;;;;;;14.70;5.82;;;;;;;2.97;81.40;100517.53;5008988;28;20132;-70
2021/11/09 02:39:48;;;;;;;14.60;5.45;;;;;;;2.98;81.93;100518.44;5008714;28;20042;-70
2021/11/09 02:42:17;;;;;;;14.55;5.03;;;;;;;3.00;82.14;100514.03;5008386;28;20038;-70
2021/11/09 02:45:16;;;;;;;18.17;5.03;;;;;;;3.07;82.34;100520.94;5009094;28;20087;-69
2021/11/09 02:47:49;;;;;;;20.90;5.95;;;;;;;3.12;82.06;100532.19;5011277;28;20045;-70
2021/11/09 02:50:16;;;;;;;16.08;5.47;;;;;;;3.19;81.64;100543.44;5008109;28;20070;-69
2021/11/09 02:52:51;;;;;;;23.25;6.50;;;;;;;3.25;81.41;100551.25;5008837;28;20552;-69
2021/11/09 02:55:26;;;;;;;8.00;3.45;;;;;;;3.30;81.19;100546.88;5008979;28;20398;-69
2021/11/09 02:58:11;;;;;;;16.02;5.63;;;;;;;3.30;80.32;100548.56;5008716;28;20037;-70
2021/11/09 03:00:51;;;;;;;18.55;4.95;;;;;;;3.25;80.64;100548.63;5008029;28;20528;-70
2021/11/09 03:03:28;;;;;;;15.38;6.10;;;;;;;3.18;80.36;100553.03;5007723;28;20064;-70
2021/11/09 03:08:38;;;;;;;14.77;5.80;;;;;;;3.00;80.51;100555.72;5008435;28;20041;-69
2021/11/09 03:11:05;;;;;;;27.85;6.05;;;;;;;2.93;81.06;100559.22;5008151;28;20038;-69
2021/11/09 03:13:30;;;;;;;14.95;6.18;;;;;;;2.92;81.60;100558.38;5008563;28;20068;-67
2021/11/09 03:16:01;;;;;;;12.50;5.47;;;;;;;2.94;81.44;100553.16;5008393;28;20069;-70
2021/11/09 03:18:30;;;;;;;14.60;5.35;;;;;;;2.94;81.54;100554.03;5007481;28;20491;-69
2021/11/09 03:45:29;;;;;;;12.55;6.10;;;;;;;2.87;81.19;100577.50;4988502;28;20585;-70
2021/11/09 03:48:01;;;;;;;14.15;5.63;;;;;;;2.83;81.38;100581.88;4988694;28;20038;-70
2021/11/09 03:50:27;;;;;;;30.38;7.10;;;;;;;2.83;81.45;100581.00;4987575;28;20114;-70
2021/11/09 03:53:03;;;;;;;14.88;6.78;;;;;;;2.83;81.34;100581.88;4988276;28;20392;-70
2021/11/09 04:00:45;;;;;;;14.15;4.60;;;;;;;2.78;81.66;100576.69;4986929;28;20474;-69
2021/11/09 04:03:31;;;;;;;13.95;5.22;;;;;;;2.75;81.27;100574.06;4990168;28;20106;-69
2021/11/09 04:06:14;;;;;;;;;;;;;;;2.73;81.26;100574.97;4989154;28;20776;-70
2021/11/09 04:08:46;;;;;;;14.07;5.05;;;;;;;2.65;81.17;100576.75;4988001;28;20004;-69
2021/11/09 04:11:18;;;;;;;15.50;5.30;;;;;;;2.62;81.20;100567.22;4987316;28;20038;-70
2021/11/09 04:18:57;;;;;;;18.00;4.95;;;;;;;2.58;81.67;100555.06;4988041;28;20078;-69
2021/11/09 04:29:19;;;;;;;10.80;3.67;;;;;;;2.61;82.15;100560.28;4986740;28;20449;-69
2021/11/09 05:08:28;;;;;;;16.15;4.43;;;;;;;2.99;80.82;100560.06;5006704;28;20040;-69
2021/11/09 05:10:56;;;;;;;20.33;6.72;;;;;;;3.07;80.32;100562.63;5006022;28;20038;-69
2021/11/09 05:13:22;;;;;;;12.30;5.22;;;;;;;3.08;79.91;100566.13;5006579;28;20451;-69
2021/11/09 05:15:48;;;;;;;17.40;5.80;;;;;;;2.96;79.60;100570.50;5006835;28;20030;-69
2021/11/09 05:18:14;;;;;;;16.48;5.63;;;;;;;2.93;80.35;100569.66;5006447;28;20041;-69
2021/11/09 05:20:40;;;;;;;11.52;5.53;;;;;;;2.86;80.50;100570.59;5006092;28;20053;-69
2021/11/09 05:23:05;;;;;;;16.20;5.53;;;;;;;2.79;80.64;100578.41;5007264;28;20037;-69
2021/11/09 05:25:31;;;;;;;18.45;4.40;;;;;;;2.76;80.96;100581.03;5006470;28;20030;-69
2021/11/09 05:27:57;;;;;;;30.02;6.18;;;;;;;2.73;80.94;100580.16;5006744;28;20046;-69
2021/11/09 05:30:23;;;;;;;10.95;5.57;;;;;;;2.74;81.45;100574.97;5006055;28;20037;-69
2021/11/09 05:32:51;;;;;;;17.38;5.97;;;;;;;2.74;80.42;100582.78;5006638;28;20054;-69
2021/11/09 05:35:17;;;;;;;15.55;5.30;;;;;;;2.74;80.70;100576.72;5006406;28;20079;-70
2021/11/09 05:37:45;;;;;;;14.80;6.60;;;;;;;2.73;80.91;100585.38;4995806;28;20030;-69
2021/11/09 05:40:12;;;;;;;25.85;6.68;;;;;;;2.62;80.80;100592.38;4986543;28;20030;-70
2021/11/09 05:42:38;;;;;;;17.70;5.93;;;;;;;2.65;81.76;100589.75;4990550;28;20557;-70
2021/11/09 05:45:05;;;;;;;18.92;9.85;;;;;;;2.66;81.24;100592.38;4990758;28;20034;-70
2021/11/09 05:47:30;;;;;;;15.68;5.88;;;;;;;2.68;81.07;100598.41;4989383;28;20528;-69
2021/11/09 05:49:55;;;;;;;9.85;5.10;;;;;;;2.66;81.10;100592.38;4990096;28;20165;-69
2021/11/09 05:52:21;;;;;;;15.05;5.50;;;;;;;2.58;80.89;100595.00;4989685;28;20425;-70
2021/11/09 05:54:46;;;;;;;15.73;5.53;;;;;;;2.55;80.93;100597.59;4988885;28;20031;-70
2021/11/09 05:57:12;;;;;;;18.58;5.95;;;;;;;2.49;81.48;100594.16;4991321;28;20557;-70
2021/11/09 05:59:37;;;;;;;15.30;5.00;;;;;;;2.48;81.77;100595.00;4990718;28;20132;-70
2021/11/09 06:02:03;;;;;;;17.92;6.32;;;;;;;2.51;81.78;100595.00;4989506;28;20038;-69
2021/11/09 06:04:29;;;;;;;19.27;6.03;;;;;;;2.54;81.78;100600.22;4990277;28;20065;-69
2021/11/09 06:06:54;;;;;;;16.25;4.82;;;;;;;2.61;82.01;100604.53;4989950;28;20026;-69
2021/11/09 06:09:19;;;;;;;19.85;5.70;;;;;;;2.68;81.42;100606.22;4989758;28;20049;-70
2021/11/09 06:11:45;;;;;;;10.23;5.72;;;;;;;2.71;81.26;100602.75;4989300;28;20060;-70
2021/11/09 06:14:10;;;;;;;19.25;6.13;;;;;;;2.75;81.26;100613.13;4990385;28;20058;-71
2021/11/09 06:16:36;;;;;;;13.77;4.82;;;;;;;2.79;81.03;100611.41;4988336;28;20062;-71
2021/11/09 06:19:03;;;;;;;10.43;5.60;;;;;;;2.78;80.78;100618.34;4989741;28;20084;-69
2021/11/09 06:21:28;;;;;;;19.45;5.93;;;;;;;2.75;80.08;100617.47;4998357;28;20052;-70
2021/11/09 06:23:54;;;;;;;12.60;4.53;;;;;;;2.73;80.60;100627.91;5009316;28;20030;-69
2021/11/09 06:26:21;;;;;;;15.07;5.57;;;;;;;2.66;80.53;100628.81;5008609;28;20049;-70
2021/11/09 06:28:47;;;;;;;19.75;5.80;;;;;;;2.62;80.75;100634.03;5009258;28;20116;-70
2021/11/09 06:31:13;;;;;;;19.75;6.72;;;;;;;2.61;80.66;100637.47;5007483;28;20034;-71
2021/11/09 06:33:38;;;;;;;9.98;4.75;;;;;;;2.58;80.80;100641.84;5007664;28;20041;-71
2021/11/09 06:36:04;;;;;;;13.18;6.18;;;;;;;2.60;81.08;100643.56;5008834;28;20068;-72
2021/11/09 06:38:29;;;;;;;13.35;4.82;;;;;;;2.62;81.21;100647.91;5007602;28;20641;-71
2021/11/09 06:40:55;;;;;;;8.88;5.00;;;;;;;2.68;80.85;100647.88;5002188;28;20041;-70
2021/11/09 06:43:21;;;;;;;10.60;4.63;;;;;;;2.73;80.78;100656.56;5005243;28;20034;-70
2021/11/09 06:45:46;;;;;;;18.80;6.43;;;;;;;2.72;80.48;100657.41;5006141;28;20026;-70
2021/11/09 06:48:12;;;;;;;14.77;7.35;;;;;;;2.75;80.46;100662.59;5008385;28;20482;-70
2021/11/09 06:50:38;;;;;;;15.30;5.55;;;;;;;2.76;80.79;100663.50;5008120;28;20556;-70
2021/11/09 06:53:04;;;;;;;20.23;6.75;;;;;;;2.78;80.71;100664.31;5007655;28;20125;-70
2021/11/09 06:55:30;;;;;;;24.00;9.82;;;;;;;2.78;80.42;100666.94;5010950;28;20426;-70
2021/11/09 06:57:55;;;;;;;22.80;8.43;;;;;;;2.79;80.71;100669.53;5008119;28;20041;-70
2021/11/09 07:00:25;;;;;;;14.73;6.25;;;;;;;2.82;80.70;100667.81;5007624;28;20077;-70
2021/11/09 07:02:51;;;;;;;15.82;6.88;;;;;;;2.89;80.71;100659.09;5008771;28;20053;-70
2021/11/09 07:05:21;;;;;;;24.95;8.65;;;;;;;2.94;80.48;100658.22;5008655;28;20452;-71
2021/11/09 07:07:47;;;;;;;16.38;7.05;;;;;;;2.98;80.59;100654.72;5008625;28;20309;-71
2021/11/09 07:10:13;;;;;;;15.57;8.40;;;;;;;3.06;80.51;100651.22;5006954;28;20042;-71
2021/11/09 07:12:39;;;;;;;18.05;7.03;;;;;;;3.07;80.40;100656.41;5008417;28;20041;-70
2021/11/09 07:15:05;;;;;;;18.77;8.85;;;;;;;3.08;80.59;100660.75;5008632;28;20033;-70
2021/11/09 07:17:31;;;;;;;28.85;7.47;;;;;;;3.15;80.55;100659.88;5007627;28;20026;-70
2021/11/09 07:19:58;;;;;;;18.60;7.60;;;;;;;3.27;80.60;100663.25;5007769;28;20034;-70
2021/11/09 07:22:24;;;;;;;16.83;6.80;;;;;;;3.32;80.02;100669.31;5007760;28;20038;-70
2021/11/09 07:24:49;;;;;;;16.80;6.60;;;;;;;3.35;79.96;100670.19;5008598;28;20089;-71
2021/11/09 07:27:15;;;;;;;14.35;7.50;;;;;;;3.38;79.85;100677.13;5006594;28;20125;-69
2021/11/09 07:29:46;;;;;;;14.23;6.28;;;;;;;3.42;79.85;100682.31;5008626;28;20129;-70
2021/11/09 07:32:12;;;;;;;16.95;7.80;;;;;;;3.56;80.09;100682.19;5007105;28;20034;-70
2021/11/09 07:34:37;;;;;;;15.07;7.60;;;;;;;3.69;79.72;100685.59;5008325;28;20049;-70
2021/11/09 07:37:03;;;;;;;19.90;7.95;;;;;;;3.78;79.18;100689.91;5007792;28;20574;-70
2021/11/09 07:39:29;;;;;;;15.10;7.00;;;;;;;3.82;78.98;100689.00;5007495;28;20045;-70
2021/11/09 07:41:54;;;;;;;10.48;6.72;;;;;;;3.84;79.00;100690.72;5006621;28;20413;-70
2021/11/09 07:44:20;;;;;;;16.65;7.00;;;;;;;3.95;79.28;100685.41;4995520;28;20513;-70
2021/11/09 07:46:45;;;;;;;18.33;5.18;;;;;;;4.08;79.45;100687.03;4988163;28;20096;-70
2021/11/09 07:49:11;;;;;;;12.93;5.18;;;;;;;4.24;78.78;100690.41;4987031;28;20042;-70
2021/11/09 07:51:36;;;;;;;10.95;4.97;;;;;;;4.36;79.07;100692.06;4987614;28;20031;-69
2021/11/09 07:54:02;;;;;;;21.42;11.63;;;;;;;4.45;78.20;100689.31;4988194;28;20428;-70
2021/11/09 07:56:33;;;;;;;14.52;7.60;;;;;;;4.51;77.63;100683.19;4987525;28;20082;-69
2021/11/09 08:01:46;;;;;;;14.40;5.57;;;;;;;4.63;78.40;100677.84;4996151;28;20106;-70
2021/11/09 08:04:17;;;;;;;9.15;5.00;;;;;;;4.78;78.21;100687.28;4996755;28;20030;-71
2021/11/09 08:11:46;;;;;;;11.50;5.32;;;;;;;4.99;78.02;100686.16;4999321;28;20638;-71
2021/11/09 08:14:12;;;;;;;9.57;5.25;;;;;;;5.09;78.18;100686.91;4998000;28;20413;-70
2021/11/09 08:16:38;;;;;;;11.52;5.40;;;;;;;5.22;78.25;100683.28;4997312;28;20088;-71
2021/11/09 08:19:05;;;;;;;10.85;4.88;;;;;;;5.35;77.58;100681.34;4995899;28;20908;-69
2021/11/09 08:21:35;;;;;;;15.18;5.85;;;;;;;5.44;77.62;100675.13;4995694;28;20129;-70
2021/11/09 08:24:02;;;;;;;10.27;4.80;;;;;;;5.54;77.51;100672.38;5000285;28;20041;-71
2021/11/09 08:26:28;;;;;;;15.68;5.05;;;;;;;5.66;77.56;100671.34;5002126;28;20149;-71
2021/11/09 08:28:55;;;;;;;11.07;5.20;;;;;;;5.80;76.46;100666.72;5006645;28;20053;-72
2021/11/09 08:31:23;;;;;;;8.98;4.53;;;;;;;5.93;76.73;100662.19;5007561;28;20050;-72
2021/11/09 08:33:49;;;;;;;22.20;7.13;;;;;;;6.06;76.08;100665.50;5008305;28;20041;-71
2021/11/09 08:36:15;;;;;;;19.95;7.03;;;;;;;6.16;76.39;100663.59;5007923;28;20076;-73
2021/11/09 08:38:42;;;;;;;10.35;4.93;;;;;;;6.28;76.30;100666.00;5008199;28;20655;-73
2021/11/09 08:41:11;;;;;;;15.40;5.28;;;;;;;6.38;76.20;100664.09;5009241;28;20477;-73
2021/11/09 08:43:39;;;;;;;14.07;5.25;;;;;;;6.44;76.32;100670.06;5009110;28;20088;-73
2021/11/09 08:46:20;;;;;;;10.93;5.50;;;;;;;6.70;76.10;100658.25;5008065;28;20040;-72
2021/11/09 08:48:49;;;;;;;20.20;5.57;;;;;;;7.60;73.00;100659.84;5008184;28;20132;-71
2021/11/09 08:51:16;;;;;;;12.40;5.47;;;;;;;8.42;71.16;100662.25;5007689;28;20052;-72
2021/11/09 08:53:52;;;;;;;15.77;7.53;;;;;;;9.00;67.86;100671.16;5006352;28;20550;-73
2021/11/09 09:06:30;;;;;;;15.20;4.90;;;;;;;12.46;57.00;100659.75;4986089;28;20788;-70
2021/11/09 09:08:56;;;;;;;14.02;5.18;;;;;;;13.04;56.91;100664.28;5003918;28;20033;-70
2021/11/09 09:11:23;;;;;;;21.38;7.15;;;;;;;13.40;53.18;100662.66;5004360;28;20092;-71
2021/11/09 09:13:48;;;;;;;10.25;5.28;;;;;;;13.71;52.99;100662.09;5003867;28;20038;-70
2021/11/09 09:16:14;;;;;;;9.98;5.10;;;;;;;14.30;52.95;100658.25;5006674;28;20059;-71
2021/11/09 09:18:39;;;;;;;13.45;4.95;;;;;;;14.73;50.44;100660.53;5006876;28;20034;-69
2021/11/09 09:21:11;;;;;;;11.20;5.47;;;;;;;15.23;49.75;100651.63;5001976;28;20122;-71
2021/11/09 09:23:42;;;;;;;13.02;5.03;;;;;;;15.86;47.34;100656.13;4992781;28;20045;-70
2021/11/09 09:52:10;;;;;;;16.10;5.32;;;;;;;17.70;41.01;100654.72;5020135;28;20144;-71
2021/11/09 09:53:22;;;;;;;9.13;3.53;;;;;;;19.14;35.75;100658.28;5005032;28;20036;-70
2021/11/09 09:55:55;;;;;;;8.05;4.10;;;;;;;19.62;35.97;100658.41;5004863;28;20414;-70
2021/11/09 09:58:20;;;;;;;11.05;3.85;;;;;;;19.86;34.14;100662.94;5021802;28;20085;-73
2021/11/09 10:00:46;;;;;;;9.38;3.70;;;;;;;19.61;34.79;100662.03;5012203;28;20056;-71
2021/11/09 10:03:12;;;;;;;6.75;2.90;;;;;;;19.97;34.11;100665.69;5001316;28;20046;-70
2021/11/09 10:05:41;;;;;;;10.32;3.47;;;;;;;19.75;33.13;100660.22;4986058;28;20554;-71
2021/11/09 10:08:16;;;;;;;7.35;3.00;;;;;;;18.71;35.02;100663.13;5001613;28;20045;-71
2021/11/09 10:10:43;;;;;;;5.63;3.20;;;;;;;18.00;36.00;100659.88;5010508;28;20041;-71
2021/11/09 10:13:13;;;;;;;6.13;3.22;;;;;;;17.62;36.13;100660.50;5003607;28;20041;-71
2021/11/09 10:15:44;;;;;;;9.27;3.90;;;;;;;17.17;37.91;100659.84;5005087;28;20444;-71
2021/11/09 10:18:13;;;;;;;6.65;3.47;;;;;;;16.46;38.27;100655.28;5005435;28;20037;-71
2021/11/09 10:20:56;;;;;;;9.98;3.10;;;;;;;15.73;39.40;100658.63;5004309;28;20065;-70
2021/11/09 10:23:23;;;;;;;9.82;3.50;;;;;;;15.54;40.37;100661.44;5005024;28;20076;-71
2021/11/09 10:25:51;;;;;;;6.07;3.40;;;;;;;15.45;41.11;100665.44;5005156;28;20030;-71
2021/11/09 10:28:22;;;;;;;7.90;3.63;;;;;;;15.46;41.38;100661.00;5005252;28;20030;-70
2021/11/09 10:31:00;;;;;;;8.40;4.40;;;;;;;15.13;42.10;100669.88;5004254;28;20046;-71
2021/11/09 10:33:30;;;;;;;8.65;3.63;;;;;;;14.80;42.26;100657.47;4988874;28;20795;-71
2021/11/09 10:35:56;;;;;;;9.40;4.25;;;;;;;14.54;43.38;100658.81;5005196;28;20502;-70
2021/11/09 10:38:30;;;;;;;7.88;3.10;;;;;;;14.36;43.48;100670.34;5004769;28;20049;-71
2021/11/09 10:40:57;;;;;;;14.02;5.00;;;;;;;14.16;44.17;100668.69;5003904;28;20141;-71
2021/11/09 10:43:25;;;;;;;8.40;3.55;;;;;;;13.96;44.04;100664.38;5004324;28;20070;-70
2021/11/09 10:45:52;;;;;;;9.88;4.22;;;;;;;13.83;45.21;100671.22;5004872;28;20042;-70
2021/11/09 10:48:19;;;;;;;7.22;3.60;;;;;;;13.60;44.37;100665.22;5005475;28;20038;-71
2021/11/09 10:50:47;;;;;;;10.80;3.13;;;;;;;13.52;45.11;100662.94;5008744;28;20121;-71
2021/11/09 10:56:29;;;;;;;11.15;4.18;;;;;;;13.31;45.01;100667.47;5007526;28;20133;-72
2021/11/09 10:59:12;;;;;;;5.40;2.72;;;;;;;13.16;44.13;100660.19;5007063;28;20030;-72
2021/11/09 11:04:39;;;;;;;11.95;3.92;;;;;;;13.06;45.31;100658.88;5025237;28;20123;-71
2021/11/09 11:07:11;;;;;;;6.00;3.58;;;;;;;13.05;45.10;100658.03;5028339;28;20113;-72
2021/11/09 11:09:40;;;;;;;6.07;3.20;;;;;;;13.03;45.39;100649.31;5026633;28;20040;-72
2021/11/09 11:12:09;;;;;;;7.47;3.25;;;;;;;13.04;45.05;100651.03;5027862;28;20093;-72
2021/11/09 11:14:36;;;;;;;8.40;3.45;;;;;;;13.04;45.14;100650.16;5009565;28;20057;-72
2021/11/09 11:17:12;;;;;;;8.85;4.00;;;;;;;12.99;45.09;100653.00;5008231;28;20549;-71
2021/11/09 11:19:47;;;;;;;6.75;3.50;;;;;;;12.99;45.52;100650.34;5008728;28;20038;-72
2021/11/09 11:22:18;;;;;;;10.48;3.30;;;;;;;13.03;46.06;100649.31;5007934;28;20084;-71
2021/11/09 11:24:45;;;;;;;9.55;3.83;;;;;;;12.97;45.94;100639.00;5008954;28;20030;-72
2021/11/09 11:27:13;;;;;;;7.78;3.20;;;;;;;13.00;44.63;100644.16;5008748;28;20041;-72
2021/11/09 11:29:40;;;;;;;8.05;3.00;;;;;;;13.01;45.19;100648.50;5008770;28;20461;-72
2021/11/09 11:32:11;;;;;;;10.60;3.30;;;;;;;13.07;45.25;100642.94;5008583;28;20145;-72
2021/11/09 11:34:37;;;;;;;11.63;4.03;;;;;;;13.07;45.89;100647.38;5009585;28;20435;-72
2021/11/09 11:37:03;;;;;;;9.00;3.75;;;;;;;13.12;45.67;100645.38;5007557;28;20572;-72
2021/11/09 11:39:31;;;;;;;8.73;3.25;;;;;;;13.21;45.87;100647.59;5004325;28;20038;-72
2021/11/09 11:42:02;;;;;;;7.88;3.22;;;;;;;13.18;45.46;100636.28;5007661;28;20437;-71
2021/11/09 11:44:31;;;;;;;7.43;3.35;;;;;;;13.17;45.36;100638.09;5008161;28;20042;-72
2021/11/09 11:46:56;;;;;;;7.03;3.30;;;;;;;13.11;44.25;100623.31;5004037;28;20133;-71
2021/11/09 11:49:50;;;;;;;10.57;4.15;;;;;;;13.08;43.72;100625.28;4996816;28;20129;-72
2021/11/09 11:52:54;;;;;;;8.35;3.53;;;;;;;13.08;43.71;100615.53;4993250;28;20569;-70
2021/11/09 11:55:23;;;;;;;13.63;3.65;;;;;;;13.00;44.33;100619.47;4984876;28;20143;-71
2021/11/09 11:58:06;;;;;;;7.72;3.35;;;;;;;13.03;44.98;100616.69;5018535;28;20094;-71
2021/11/09 12:00:35;;;;;;;9.07;2.70;;;;;;;12.97;44.82;100619.59;5024171;28;20048;-71
2021/11/09 12:03:04;;;;;;;7.80;4.03;;;;;;;12.96;44.61;100616.09;5024305;28;20033;-71
2021/11/09 12:05:38;;;;;;;10.65;3.20;;;;;;;12.91;45.53;100610.16;5011216;28;20881;-70
2021/11/09 12:08:04;;;;;;;19.63;4.43;;;;;;;12.92;45.21;100603.06;5003209;28;20037;-71
2021/11/09 12:10:39;;;;;;;10.05;3.25;;;;;;;12.92;44.12;100608.38;5008752;28;20053;-70
2021/11/09 12:13:08;;;;;;;7.43;3.30;;;;;;;12.91;44.61;100596.94;5007483;28;20128;-70
2021/11/09 12:15:45;;;;;;;14.57;4.65;;;;;;;12.92;45.12;100590.72;5013706;28;20117;-71
2021/11/09 12:18:39;;;;;;;11.60;3.75;;;;;;;12.90;44.43;100597.88;4986267;28;20033;-70
2021/11/09 12:21:30;;;;;;;9.35;2.92;;;;;;;12.91;45.26;100588.13;4974040;28;20164;-72
2021/11/09 12:24:15;;;;;;;10.65;4.05;;;;;;;12.84;44.91;100580.47;4999188;28;20046;-71
2021/11/09 12:26:46;;;;;;;16.67;4.10;;;;;;;12.81;46.08;100582.41;5005405;28;20437;-71
2021/11/09 12:29:36;;;;;;;9.07;3.17;;;;;;;12.82;44.74;100577.06;5023283;28;20037;-71
2021/11/09 12:32:38;;;;;;;9.73;3.40;;;;;;;12.83;45.31;100575.25;5022547;28;20041;-71
2021/11/09 12:35:21;;;;;;;9.43;3.13;;;;;;;12.77;44.63;100573.72;4965367;28;20081;-71
2021/11/09 12:38:02;;;;;;;9.15;3.22;;;;;;;12.79;44.99;100558.66;5020072;28;20040;-71
2021/11/09 12:40:39;;;;;;;5.70;3.08;;;;;;;12.85;44.95;100560.19;5003979;28;20045;-71
2021/11/09 12:43:16;;;;;;;6.57;2.75;;;;;;;12.87;45.23;100547.69;5001629;28;20033;-71
2021/11/09 12:45:54;;;;;;;9.15;3.17;;;;;;;12.90;45.01;100550.22;5002755;28;20045;-70
2021/11/09 12:48:26;;;;;;;8.27;3.13;;;;;;;12.90;45.20;100550.22;5003836;28;20429;-72
2021/11/09 12:50:58;;;;;;;4.93;2.65;;;;;;;12.91;45.32;100548.44;5004332;28;20092;-72
2021/11/09 12:53:26;;;;;;;9.05;3.08;;;;;;;12.87;45.33;100542.41;5005495;28;20038;-70
2021/11/09 12:56:16;;;;;;;8.38;3.47;;;;;;;12.79;45.03;100540.13;5006553;28;20042;-72
2021/11/09 12:58:50;;;;;;;8.35;3.28;;;;;;;12.76;45.34;100545.56;5006545;28;20065;-73
2021/11/09 13:01:42;;;;;;;7.30;3.20;;;;;;;12.74;45.39;100541.28;5012138;28;20026;-71
2021/11/09 13:06:53;;;;;;;4.78;2.72;;;;;;;12.68;45.72;100539.78;5026249;28;20059;-72
2021/11/09 13:09:25;;;;;;;8.10;3.10;;;;;;;12.68;45.49;100535.34;5024809;28;20057;-74
2021/11/09 13:11:57;;;;;;;6.45;3.28;;;;;;;12.72;45.63;100535.19;5026049;28;20531;-71
2021/11/09 13:14:31;;;;;;;9.93;2.97;;;;;;;12.71;45.69;100536.97;5025818;28;20091;-72
2021/11/09 13:16:57;;;;;;;8.10;3.58;;;;;;;12.66;45.78;100537.19;5007572;28;20107;-74
2021/11/09 13:19:36;;;;;;;10.68;4.07;;;;;;;12.67;46.16;100535.41;5007177;28;20030;-73
2021/11/09 13:22:08;;;;;;;10.18;3.22;;;;;;;12.70;46.40;100534.41;5008811;28;20061;-71
2021/11/09 13:24:37;;;;;;;6.25;4.07;;;;;;;12.65;46.22;100531.97;5008367;28;20045;-72
2021/11/09 13:27:03;;;;;;;5.55;2.72;;;;;;;12.64;45.53;100528.47;5006573;28;20072;-70
2021/11/09 13:29:47;;;;;;;5.47;2.53;;;;;;;12.69;46.66;100533.53;5006670;28;20038;-70
2021/11/09 13:32:15;;;;;;;8.68;3.10;;;;;;;12.67;46.84;100527.47;5005176;28;20040;-72
2021/11/09 13:34:41;;;;;;;9.98;3.90;;;;;;;12.64;46.29;100525.81;4990404;28;20046;-73
2021/11/09 13:37:07;;;;;;;6.93;3.45;;;;;;;12.63;46.14;100528.56;4986968;28;20290;-71
2021/11/09 13:39:33;;;;;;;10.00;4.25;;;;;;;12.59;46.97;100530.47;4987872;28;20034;-71
2021/11/09 13:41:58;;;;;;;9.88;3.95;;;;;;;12.60;47.02;100526.03;4986714;28;20578;-71
2021/11/09 13:44:33;;;;;;;9.75;2.90;;;;;;;12.61;46.67;100530.41;4987165;28;20074;-72
2021/11/09 13:46:59;;;;;;;7.32;3.70;;;;;;;12.57;46.80;100523.53;4986489;28;20097;-72